Accueil
METAR-TAF:

METAR-TAF

Aéroports :

Aéroport international de Coni

Coni, Italie

latitude: 44-32-47N, longitude: 007-37-20E, altitude: 386 m

Observation

Le bulletin a été fait il y a 2 heures et 49 minutes, à 18:50 UTC
Vent 4 kt de sud-ouest
Température 2°C
Humidité 100%
Pression 1010 hPa
Visibilité 10 km ou plus
pas de nuages en-dessous de 1500 mètres et pas de cumulonimbus.

METAR: LIMZ 201850Z 23004KT CAVOK 02/02 Q1010

Heure: 22:39 (21:39 UTC)

Prévision

Le bulletin a été fait il y a 4 heures et 39 minutes, à 17:00 UTC
Prévision valable du 20 à 18 UTC au 21 à 18 UTC
Vent 5 kt de direction variable
Visibilité 10 km ou plus
Nuages fragmentés à une hauteur de 5000 ft
Temporairement
du 21 à 09 UTC au 21 à 14 UTC
pluie

TAF: LIMZ 201700Z 2018/2118 VRB05KT 9999 BKN050 TEMPO 2109/2114 RA

Observations et prévisions météorologiques de plus de 4000 aéroports (messages METAR et TAF).

Les stations disponibles sont représentées par des disques jaunes et rouges sur la carte.

Passer la souris dessus pour voir le nom de la station.

Cliquer dessus pour voir les observations et prévisions météorologiques.

Pour changer de carte: cliquez sur les boutons verts avec une croix noire pour zoomer, sur le bouton vert avec un tiret pour effectuer un zoom arrière, ou sur les flèches vertes pour les cartes adjacentes.


METAR-TAF: